createdAt,value
2023-05-18T00:00:14.333Z,96876.06
2023-05-18T00:02:43.393Z,96877.63
2023-05-18T00:05:11.646Z,96880.84
2023-05-18T00:07:39.491Z,96876.19
2023-05-18T00:10:08.313Z,96873.69
2023-05-18T00:12:35.850Z,96870.56
2023-05-18T00:15:03.542Z,96874.13
2023-05-18T00:17:31.668Z,96868.19
2023-05-18T00:20:00.990Z,96862.97
2023-05-18T00:22:28.543Z,96860.16
2023-05-18T00:24:56.072Z,96859.56
2023-05-18T00:27:23.580Z,96865.03
2023-05-18T00:29:51.172Z,96865.34
2023-05-18T00:32:18.683Z,96863.59
2023-05-18T00:34:46.181Z,96862.78
2023-05-18T00:37:15.092Z,96864.31
2023-05-18T00:39:42.621Z,96864.72
2023-05-18T00:42:10.176Z,96867.31
2023-05-18T00:44:37.672Z,96873.84
2023-05-18T00:47:05.521Z,96868.47
2023-05-18T00:49:33.067Z,96875.38
2023-05-18T00:52:00.726Z,96871.41
2023-05-18T00:54:29.643Z,96869.94
2023-05-18T00:57:01.980Z,96865.69
2023-05-18T00:59:29.853Z,96865.03
2023-05-18T01:01:57.848Z,96873.13
2023-05-18T01:04:27.756Z,96863.00
2023-05-18T01:06:58.491Z,96857.16
2023-05-18T01:09:26.266Z,96854.00
2023-05-18T01:12:01.395Z,96857.38
2023-05-18T01:14:33.809Z,96860.84
2023-05-18T01:17:11.499Z,96860.28
2023-05-18T01:20:08.539Z,96870.97
2023-05-18T01:22:47.723Z,96866.97
2023-05-18T01:25:29.779Z,96869.06
2023-05-18T01:28:05.969Z,96865.53
2023-05-18T01:30:34.604Z,96861.72
2023-05-18T01:33:02.185Z,96861.22
2023-05-18T01:35:29.916Z,96856.44
2023-05-18T01:37:57.557Z,96861.69
2023-05-18T01:40:28.400Z,96850.91
2023-05-18T01:43:01.882Z,96864.56
2023-05-18T01:45:30.812Z,96848.22
2023-05-18T01:48:01.975Z,96840.84
2023-05-18T01:50:37.861Z,96849.31
2023-05-18T01:53:13.873Z,96849.28
2023-05-18T01:55:43.092Z,96841.38
2023-05-18T01:58:14.322Z,96844.34
2023-05-18T02:00:41.987Z,96845.41
2023-05-18T02:03:09.600Z,96837.22
2023-05-18T02:05:37.225Z,96836.16
2023-05-18T02:08:05.109Z,96840.13
2023-05-18T02:10:32.699Z,96838.81
2023-05-18T02:13:00.323Z,96834.59
2023-05-18T02:15:29.654Z,96833.53
2023-05-18T02:17:58.292Z,96832.53
2023-05-18T02:20:27.395Z,96837.03
2023-05-18T02:22:55.880Z,96846.94
2023-05-18T02:25:23.602Z,96838.63
2023-05-18T02:27:51.250Z,96836.03
2023-05-18T02:30:19.086Z,96839.31
2023-05-18T02:32:49.340Z,96839.53
2023-05-18T02:35:18.010Z,96839.06
2023-05-18T02:37:45.562Z,96843.16
2023-05-18T02:40:14.208Z,96842.81
2023-05-18T02:42:41.770Z,96845.78
2023-05-18T02:45:10.153Z,96843.56
2023-05-18T02:47:37.742Z,96838.13
2023-05-18T02:50:07.778Z,96840.91
2023-05-18T02:52:35.281Z,96839.09
2023-05-18T02:55:02.789Z,96831.50
2023-05-18T02:57:32.031Z,96842.84
2023-05-18T02:59:59.665Z,96829.75
2023-05-18T03:02:27.676Z,96833.66
2023-05-18T03:04:57.351Z,96829.28
2023-05-18T03:07:27.671Z,96827.59
2023-05-18T03:09:55.516Z,96840.91
2023-05-18T03:12:23.022Z,96835.31
2023-05-18T03:14:50.632Z,96838.09
2023-05-18T03:17:18.181Z,96830.22
2023-05-18T03:19:45.878Z,96839.56
2023-05-18T03:22:13.392Z,96835.47
2023-05-18T03:24:43.191Z,96848.28
2023-05-18T03:27:12.932Z,96830.47
2023-05-18T03:29:40.534Z,96844.03
2023-05-18T03:32:08.556Z,96840.94
2023-05-18T03:34:37.128Z,96848.03
2023-05-18T03:37:04.774Z,96841.97
2023-05-18T03:39:32.258Z,96838.28
2023-05-18T03:42:01.311Z,96844.06
2023-05-18T03:44:28.862Z,96840.84
2023-05-18T03:46:56.530Z,96844.22
2023-05-18T03:49:24.060Z,96844.22
2023-05-18T03:51:54.193Z,96846.78
2023-05-18T03:54:21.821Z,96846.38
2023-05-18T03:56:49.443Z,96845.31
2023-05-18T03:59:18.289Z,96844.91
2023-05-18T04:01:45.897Z,96855.25
2023-05-18T04:04:18.082Z,96841.00
2023-05-18T04:06:46.698Z,96849.22
2023-05-18T04:09:17.304Z,96843.22
2023-05-18T04:11:45.050Z,96847.06
2023-05-18T04:14:14.110Z,96845.19
2023-05-18T04:16:43.152Z,96846.44
2023-05-18T04:19:10.848Z,96840.09
2023-05-18T04:21:38.432Z,96836.00
2023-05-18T04:24:07.169Z,96843.41
2023-05-18T04:26:36.458Z,96845.81
2023-05-18T04:29:04.279Z,96843.84
2023-05-18T04:31:31.778Z,96844.63
2023-05-18T04:34:00.668Z,96840.97
2023-05-18T04:36:30.867Z,96839.88
2023-05-18T04:38:59.502Z,96844.53
2023-05-18T04:41:27.150Z,96844.19
2023-05-18T04:43:54.741Z,96844.94
2023-05-18T04:46:23.137Z,96844.78
2023-05-18T04:48:50.878Z,96845.88
2023-05-18T04:51:21.476Z,96839.91
2023-05-18T04:53:50.113Z,96843.72
2023-05-18T04:56:17.815Z,96857.69
2023-05-18T04:58:46.082Z,96848.91
2023-05-18T05:01:15.346Z,96850.13
2023-05-18T05:03:43.270Z,96854.63
2023-05-18T05:06:11.834Z,96863.38
2023-05-18T05:08:40.718Z,96864.63
2023-05-18T05:11:08.298Z,96863.44
2023-05-18T05:13:36.494Z,96866.59
2023-05-18T05:16:04.132Z,96866.47
2023-05-18T05:18:31.671Z,96872.06
2023-05-18T05:20:59.451Z,96864.41
2023-05-18T05:23:26.980Z,96869.19
2023-05-18T05:25:55.926Z,96857.13
2023-05-18T05:28:23.431Z,96852.91
2023-05-18T05:30:51.045Z,96863.53
2023-05-18T05:33:19.063Z,96858.78
2023-05-18T05:35:46.568Z,96862.94
2023-05-18T05:38:14.061Z,96863.63
2023-05-18T05:40:41.539Z,96855.59
2023-05-18T05:43:10.439Z,96863.47
2023-05-18T05:45:38.745Z,96860.75
2023-05-18T05:48:06.644Z,96858.94
2023-05-18T05:50:34.190Z,96856.34
2023-05-18T05:53:01.936Z,96850.63
2023-05-18T05:55:29.525Z,96865.09
2023-05-18T05:57:57.186Z,96861.78
2023-05-18T06:00:28.714Z,96856.81
2023-05-18T06:02:56.652Z,96859.84
2023-05-18T06:05:24.216Z,96866.09
2023-05-18T06:07:51.894Z,96867.38
2023-05-18T06:10:19.541Z,96865.31
2023-05-18T06:12:47.081Z,96871.16
2023-05-18T06:15:14.574Z,96867.47
2023-05-18T06:17:44.097Z,96862.09
2023-05-18T06:20:13.660Z,96865.41
2023-05-18T06:22:41.326Z,96864.88
2023-05-18T06:25:10.642Z,96869.41
2023-05-18T06:27:38.217Z,96866.63
2023-05-18T06:30:08.113Z,96870.81
2023-05-18T06:32:37.408Z,96871.97
2023-05-18T06:35:07.314Z,96877.88
2023-05-18T06:37:34.982Z,96876.66
2023-05-18T06:40:03.590Z,96873.22
2023-05-18T06:42:32.703Z,96868.66
2023-05-18T06:45:00.452Z,96869.34
2023-05-18T06:47:27.987Z,96870.66
2023-05-18T06:49:55.514Z,96876.38
2023-05-18T06:52:26.340Z,96869.47
2023-05-18T06:54:54.595Z,96879.59
2023-05-18T06:57:22.152Z,96885.91
2023-05-18T06:59:53.528Z,96875.31
2023-05-18T07:02:21.434Z,96897.44
2023-05-18T07:04:49.667Z,96876.47
2023-05-18T07:07:17.677Z,96884.22
2023-05-18T07:09:49.604Z,96894.09
2023-05-18T07:12:17.529Z,96890.66
2023-05-18T07:14:45.025Z,96890.06
2023-05-18T07:17:12.531Z,96882.78
2023-05-18T07:19:40.038Z,96885.78
2023-05-18T07:22:07.646Z,96887.88
2023-05-18T07:24:35.334Z,96876.19
2023-05-18T07:27:04.498Z,96880.03
2023-05-18T07:29:32.101Z,96871.56
2023-05-18T07:31:59.845Z,96865.63
2023-05-18T07:34:27.744Z,96862.16
2023-05-18T07:36:55.294Z,96865.00
2023-05-18T07:39:28.495Z,96864.13
2023-05-18T07:41:56.115Z,96862.47
2023-05-18T07:44:25.546Z,96866.25
2023-05-18T07:46:53.186Z,96871.88
2023-05-18T07:49:23.163Z,96859.84
2023-05-18T07:51:51.137Z,96866.84
2023-05-18T07:54:19.169Z,96861.34
2023-05-18T07:56:46.775Z,96857.41
2023-05-18T07:59:14.525Z,96858.34
2023-05-18T08:01:45.015Z,96855.78
2023-05-18T08:04:12.848Z,96868.44
2023-05-18T08:06:40.646Z,96865.34
2023-05-18T08:09:08.156Z,96871.31
2023-05-18T08:11:35.669Z,96863.81
2023-05-18T08:14:03.136Z,96856.44
2023-05-18T08:16:30.782Z,96868.53
2023-05-18T08:18:59.629Z,96862.41
2023-05-18T08:21:28.508Z,96870.16
2023-05-18T08:23:56.209Z,96865.47
2023-05-18T08:26:24.488Z,96863.63
2023-05-18T08:28:51.950Z,96856.53
2023-05-18T08:31:19.614Z,96860.53
2023-05-18T08:33:47.122Z,96862.59
2023-05-18T08:36:16.936Z,96857.28
2023-05-18T08:38:44.544Z,96845.47
2023-05-18T08:41:20.944Z,96842.22
2023-05-18T08:43:52.188Z,96852.78
2023-05-18T08:46:22.732Z,96850.50
2023-05-18T08:48:53.502Z,96853.72
2023-05-18T08:51:23.395Z,96851.38
2023-05-18T08:53:53.795Z,96848.19
2023-05-18T08:56:24.221Z,96835.72
2023-05-18T08:58:53.351Z,96834.94
2023-05-18T09:01:22.939Z,96841.41
2023-05-18T09:03:51.335Z,96839.31
2023-05-18T09:06:19.688Z,96836.78
2023-05-18T09:08:49.565Z,96837.78
2023-05-18T09:11:18.239Z,96843.03
2023-05-18T09:13:45.909Z,96852.44
2023-05-18T09:16:13.471Z,96843.28
2023-05-18T09:18:41.126Z,96834.47
2023-05-18T09:21:08.807Z,96839.84
2023-05-18T09:23:36.512Z,96835.91
2023-05-18T09:26:05.927Z,96836.78
2023-05-18T09:28:36.547Z,96826.31
2023-05-18T09:31:04.742Z,96834.13
2023-05-18T09:33:35.208Z,96828.13
2023-05-18T09:36:03.179Z,96833.06
2023-05-18T09:38:30.696Z,96837.78
2023-05-18T09:40:58.181Z,96824.97
2023-05-18T09:43:27.062Z,96835.13
2023-05-18T09:45:54.550Z,96832.72
2023-05-18T09:48:25.190Z,96817.53
2023-05-18T09:50:53.073Z,96822.88
2023-05-18T09:53:20.771Z,96834.44
2023-05-18T09:55:50.804Z,96830.91
2023-05-18T09:58:18.426Z,96820.44
2023-05-18T10:00:51.730Z,96826.00
2023-05-18T10:03:21.579Z,96821.56
2023-05-18T10:05:49.291Z,96827.25
2023-05-18T10:08:17.539Z,96824.97
2023-05-18T10:10:46.402Z,96826.44
2023-05-18T10:13:19.951Z,96831.34
2023-05-18T10:15:50.855Z,96825.03
2023-05-18T10:18:23.531Z,96818.53
2023-05-18T10:20:52.342Z,96824.38
2023-05-18T10:23:20.875Z,96817.78
2023-05-18T10:25:50.548Z,96813.91
2023-05-18T10:28:24.414Z,96812.31
2023-05-18T10:30:54.565Z,96799.44
2023-05-18T10:33:28.985Z,96800.47
2023-05-18T10:35:57.732Z,96803.41
2023-05-18T10:38:26.718Z,96795.13
2023-05-18T10:40:56.464Z,96809.63
2023-05-18T10:43:27.337Z,96803.63
2023-05-18T10:45:58.056Z,96801.97
2023-05-18T10:48:26.957Z,96798.25
2023-05-18T10:50:55.839Z,96795.91
2023-05-18T10:53:26.642Z,96796.03
2023-05-18T10:55:55.438Z,96796.13
2023-05-18T10:58:26.404Z,96800.78
2023-05-18T11:00:57.743Z,96792.41
2023-05-18T11:03:26.990Z,96804.38
2023-05-18T11:06:06.604Z,96798.56
2023-05-18T11:08:34.641Z,96782.66
2023-05-18T11:11:04.097Z,96777.25
2023-05-18T11:13:33.111Z,96785.56
2023-05-18T11:16:06.753Z,96791.78
2023-05-18T11:18:43.230Z,96778.38
2023-05-18T11:21:51.520Z,96780.72
2023-05-18T11:24:21.663Z,96783.50
2023-05-18T11:26:50.593Z,96780.81
2023-05-18T11:29:19.865Z,96782.03
2023-05-18T11:31:50.260Z,96788.94
2023-05-18T11:34:39.686Z,96786.41
2023-05-18T11:37:10.121Z,96788.06
2023-05-18T11:39:47.989Z,96783.03
2023-05-18T11:42:20.326Z,96776.75
2023-05-18T11:44:53.246Z,96787.56
2023-05-18T11:47:22.260Z,96779.31
2023-05-18T11:49:53.088Z,96780.78
2023-05-18T11:52:22.168Z,96783.25
2023-05-18T11:54:52.848Z,96784.88
2023-05-18T11:57:21.499Z,96783.91
2023-05-18T11:59:55.019Z,96788.22
2023-05-18T12:02:26.732Z,96775.03
2023-05-18T12:04:55.379Z,96788.75
2023-05-18T12:07:25.089Z,96779.13
2023-05-18T12:09:52.665Z,96782.19
2023-05-18T12:12:20.943Z,96770.84
2023-05-18T12:14:55.414Z,96773.16
2023-05-18T12:17:24.674Z,96781.81
2023-05-18T12:19:52.246Z,96774.22
2023-05-18T12:22:19.951Z,96771.41
2023-05-18T12:24:47.482Z,96778.72
2023-05-18T12:27:14.998Z,96779.63
2023-05-18T12:29:43.504Z,96768.88
2023-05-18T12:32:12.418Z,96762.22
2023-05-18T12:34:41.378Z,96758.75
2023-05-18T12:37:08.899Z,96759.84
2023-05-18T12:39:36.840Z,96757.81
2023-05-18T12:42:15.987Z,96772.25
2023-05-18T12:44:45.299Z,96783.78
2023-05-18T12:47:13.894Z,96772.13
2023-05-18T12:49:49.183Z,96770.25
2023-05-18T12:52:17.661Z,96774.41
2023-05-18T12:54:55.253Z,96768.16
2023-05-18T12:57:26.505Z,96764.44
2023-05-18T12:59:55.031Z,96771.19
2023-05-18T13:02:28.402Z,96764.50
2023-05-18T13:05:08.680Z,96761.34
2023-05-18T13:07:37.405Z,96766.50
2023-05-18T13:10:10.383Z,96767.97
2023-05-18T13:12:49.090Z,96762.13
2023-05-18T13:15:18.357Z,96750.78
2023-05-18T13:17:55.699Z,96757.50
2023-05-18T13:20:25.101Z,96756.28
2023-05-18T13:22:52.639Z,96757.41
2023-05-18T13:25:20.522Z,96759.91
2023-05-18T13:27:49.536Z,96758.88
2023-05-18T13:30:18.127Z,96748.69
2023-05-18T13:32:45.783Z,96750.91
2023-05-18T13:35:13.637Z,96759.19
2023-05-18T13:37:42.494Z,96756.78
2023-05-18T13:40:11.291Z,96755.50
2023-05-18T13:42:38.854Z,96752.50
2023-05-18T13:45:07.463Z,96760.53
2023-05-18T13:47:35.024Z,96758.63
2023-05-18T13:50:02.569Z,96743.78
2023-05-18T13:52:30.046Z,96750.72
2023-05-18T13:54:58.851Z,96739.94
2023-05-18T13:57:27.113Z,96742.63
2023-05-18T13:59:54.771Z,96745.94
2023-05-18T14:02:22.301Z,96734.25
2023-05-18T14:04:49.798Z,96736.03
2023-05-18T14:07:17.340Z,96734.41
2023-05-18T14:09:44.907Z,96724.06
2023-05-18T14:12:13.827Z,96729.16
2023-05-18T14:14:43.120Z,96723.78
2023-05-18T14:17:11.540Z,96728.13
2023-05-18T14:19:39.226Z,96713.25
2023-05-18T14:22:07.063Z,96722.19
2023-05-18T14:24:34.548Z,96711.25
2023-05-18T14:27:02.045Z,96713.00
2023-05-18T14:29:31.016Z,96718.28
2023-05-18T14:31:58.482Z,96721.34
2023-05-18T14:34:26.890Z,96725.53
2023-05-18T14:36:54.750Z,96719.28
2023-05-18T14:39:22.225Z,96712.44
2023-05-18T14:41:49.697Z,96711.69
2023-05-18T14:44:17.210Z,96711.03
2023-05-18T14:46:46.330Z,96700.44
2023-05-18T14:49:13.921Z,96704.22
2023-05-18T14:51:41.464Z,96706.38
2023-05-18T14:54:08.971Z,96699.13
2023-05-18T14:56:36.580Z,96698.91
2023-05-18T14:59:04.092Z,96707.16
2023-05-18T15:01:31.681Z,96706.88
2023-05-18T15:04:00.687Z,96693.63
2023-05-18T15:06:29.346Z,96703.75
2023-05-18T15:08:56.847Z,96696.94
2023-05-18T15:11:24.397Z,96712.47
2023-05-18T15:13:51.968Z,96708.72
2023-05-18T15:16:20.367Z,96704.31
2023-05-18T15:18:47.948Z,96700.66
2023-05-18T15:21:16.776Z,96703.56
2023-05-18T15:23:44.254Z,96697.59
2023-05-18T15:26:11.800Z,96696.53
2023-05-18T15:28:40.872Z,96698.16
2023-05-18T15:31:09.150Z,96698.19
2023-05-18T15:33:41.838Z,96703.53
2023-05-18T15:36:09.814Z,96698.03
2023-05-18T15:38:38.658Z,96698.59
2023-05-18T15:41:06.350Z,96698.38
2023-05-18T15:43:36.388Z,96694.03
2023-05-18T15:46:03.942Z,96695.28
2023-05-18T15:48:31.506Z,96692.84
2023-05-18T15:50:59.079Z,96703.72
2023-05-18T15:53:26.566Z,96703.94
2023-05-18T15:55:58.568Z,96700.28
2023-05-18T15:58:26.931Z,96697.09
2023-05-18T16:00:54.589Z,96693.91
2023-05-18T16:03:22.327Z,96693.47
2023-05-18T16:05:50.203Z,96688.59
2023-05-18T16:08:17.724Z,96681.97
2023-05-18T16:10:45.275Z,96681.59
2023-05-18T16:13:14.743Z,96680.47
2023-05-18T16:15:42.313Z,96674.63
2023-05-18T16:18:09.850Z,96685.06
2023-05-18T16:20:37.626Z,96682.38
2023-05-18T16:23:05.216Z,96676.72
2023-05-18T16:25:33.031Z,96686.75
2023-05-18T16:28:00.556Z,96691.94
2023-05-18T16:30:29.644Z,96694.00
2023-05-18T16:32:57.454Z,96695.91
2023-05-18T16:35:24.998Z,96695.78
2023-05-18T16:37:52.506Z,96704.47
2023-05-18T16:40:20.034Z,96698.81
2023-05-18T16:42:48.835Z,96694.97
2023-05-18T16:45:16.451Z,96698.66
2023-05-18T16:47:45.366Z,96700.13
2023-05-18T16:50:12.895Z,96698.34
2023-05-18T16:52:40.392Z,96703.75
2023-05-18T16:55:08.349Z,96698.03
2023-05-18T16:57:36.737Z,96699.59
2023-05-18T17:00:08.624Z,96695.97
2023-05-18T17:02:38.491Z,96702.91
2023-05-18T17:05:08.393Z,96695.34
2023-05-18T17:07:36.215Z,96700.81
2023-05-18T17:10:04.070Z,96701.53
2023-05-18T17:12:31.708Z,96700.16
2023-05-18T17:14:59.218Z,96706.16
2023-05-18T17:17:26.805Z,96702.84
2023-05-18T17:19:54.432Z,96700.41
2023-05-18T17:22:23.256Z,96699.69
2023-05-18T17:24:50.774Z,96700.69
2023-05-18T17:27:18.307Z,96703.19
2023-05-18T17:29:45.800Z,96702.84
2023-05-18T17:32:13.321Z,96701.63
2023-05-18T17:34:41.007Z,96701.53
2023-05-18T17:37:08.568Z,96711.88
2023-05-18T17:39:37.410Z,96701.44
2023-05-18T17:42:05.407Z,96702.28
2023-05-18T17:44:32.910Z,96701.22
2023-05-18T17:47:01.435Z,96695.84
2023-05-18T17:49:28.991Z,96702.38
2023-05-18T17:51:57.380Z,96705.47
2023-05-18T17:54:25.879Z,96706.41
2023-05-18T17:56:56.524Z,96705.22
2023-05-18T17:59:24.091Z,96703.25
2023-05-18T18:01:51.592Z,96703.75
2023-05-18T18:04:19.186Z,96711.16
2023-05-18T18:06:46.871Z,96712.34
2023-05-18T18:09:14.386Z,96710.09
2023-05-18T18:11:41.882Z,96708.25
2023-05-18T18:14:11.472Z,96716.72
2023-05-18T18:16:39.016Z,96720.44
2023-05-18T18:19:06.594Z,96717.91
2023-05-18T18:21:34.101Z,96717.31
2023-05-18T18:24:02.697Z,96722.06
2023-05-18T18:26:30.697Z,96720.13
2023-05-18T18:28:58.198Z,96720.09
2023-05-18T18:31:27.095Z,96721.75
2023-05-18T18:33:54.682Z,96724.72
2023-05-18T18:36:23.715Z,96722.72
2023-05-18T18:38:52.430Z,96726.44
2023-05-18T18:41:20.039Z,96735.31
2023-05-18T18:43:47.526Z,96732.69
2023-05-18T18:46:15.116Z,96729.84
2023-05-18T18:48:43.957Z,96736.66
2023-05-18T18:51:11.481Z,96747.06
2023-05-18T18:53:38.963Z,96745.75
2023-05-18T18:56:06.591Z,96747.75
2023-05-18T18:58:34.119Z,96744.34
2023-05-18T19:01:01.626Z,96754.69
2023-05-18T19:03:29.256Z,96752.69
2023-05-18T19:05:58.102Z,96759.91
2023-05-18T19:08:25.760Z,96768.41
2023-05-18T19:10:53.282Z,96758.25
2023-05-18T19:13:21.003Z,96771.72
2023-05-18T19:15:49.214Z,96774.09
2023-05-18T19:18:16.810Z,96773.44
2023-05-18T19:20:44.305Z,96773.22
2023-05-18T19:23:13.133Z,96778.72
2023-05-18T19:25:40.736Z,96778.69
2023-05-18T19:28:08.268Z,96784.03
2023-05-18T19:30:35.853Z,96790.22
2023-05-18T19:33:03.407Z,96793.41
2023-05-18T19:35:31.295Z,96801.91
2023-05-18T19:37:59.728Z,96804.75
2023-05-18T19:40:28.911Z,96795.25
2023-05-18T19:42:59.471Z,96800.44
2023-05-18T19:45:27.237Z,96808.44
2023-05-18T19:47:54.856Z,96809.25
2023-05-18T19:50:22.524Z,96806.59
2023-05-18T19:52:50.108Z,96809.03
2023-05-18T19:55:18.370Z,96809.66
2023-05-18T19:57:47.213Z,96811.72
2023-05-18T20:00:15.227Z,96814.56
2023-05-18T20:02:43.039Z,96819.69
2023-05-18T20:05:12.657Z,96809.03
2023-05-18T20:07:40.990Z,96810.25
2023-05-18T20:10:08.515Z,96818.72
2023-05-18T20:12:36.102Z,96813.03
2023-05-18T20:15:05.740Z,96807.28
2023-05-18T20:17:33.265Z,96821.41
2023-05-18T20:20:00.780Z,96816.06
2023-05-18T20:22:28.353Z,96812.06
2023-05-18T20:24:55.924Z,96822.75
2023-05-18T20:27:23.486Z,96816.25
2023-05-18T20:29:51.090Z,96818.09
2023-05-18T20:32:20.008Z,96827.75
2023-05-18T20:34:47.611Z,96828.25
2023-05-18T20:37:15.118Z,96824.25
2023-05-18T20:39:50.348Z,96826.06
2023-05-18T20:42:21.713Z,96830.53
2023-05-18T20:44:50.826Z,96825.84
2023-05-18T20:47:20.331Z,96830.59
2023-05-18T20:49:48.530Z,96821.59
2023-05-18T20:52:16.597Z,96827.75
2023-05-18T20:54:44.472Z,96830.28
2023-05-18T20:57:12.066Z,96825.19
2023-05-18T20:59:39.644Z,96828.06
2023-05-18T21:02:07.597Z,96827.66
2023-05-18T21:04:36.474Z,96821.91
2023-05-18T21:07:05.493Z,96830.03
2023-05-18T21:09:34.131Z,96832.84
2023-05-18T21:12:02.595Z,96822.19
2023-05-18T21:14:30.164Z,96818.19
2023-05-18T21:16:57.711Z,96823.44
2023-05-18T21:19:25.590Z,96821.19
2023-05-18T21:21:54.618Z,96824.16
2023-05-18T21:24:22.149Z,96826.44
2023-05-18T21:26:49.682Z,96829.16
2023-05-18T21:29:17.171Z,96823.84
2023-05-18T21:31:44.751Z,96829.91
2023-05-18T21:34:12.377Z,96829.88
2023-05-18T21:36:40.216Z,96828.66
2023-05-18T21:39:09.572Z,96824.81
2023-05-18T21:41:40.178Z,96825.19
2023-05-18T21:44:07.822Z,96831.88
2023-05-18T21:46:35.960Z,96831.59
2023-05-18T21:49:04.628Z,96829.31
2023-05-18T21:51:32.332Z,96819.72
2023-05-18T21:54:01.215Z,96823.06
2023-05-18T21:56:30.268Z,96826.72
2023-05-18T21:58:57.790Z,96824.22
2023-05-18T22:01:25.354Z,96824.22
2023-05-18T22:03:52.911Z,96822.81
2023-05-18T22:06:20.862Z,96827.66
2023-05-18T22:08:48.752Z,96824.28
2023-05-18T22:11:16.280Z,96821.44
2023-05-18T22:13:45.736Z,96829.09
2023-05-18T22:16:13.258Z,96827.03
2023-05-18T22:18:40.781Z,96826.66
2023-05-18T22:21:08.436Z,96829.31
2023-05-18T22:23:35.924Z,96824.13
2023-05-18T22:26:03.442Z,96820.53
2023-05-18T22:28:30.954Z,96818.34
2023-05-18T22:30:59.794Z,96818.94
2023-05-18T22:33:27.482Z,96817.56
2023-05-18T22:35:55.000Z,96814.91
2023-05-18T22:38:23.053Z,96803.72
2023-05-18T22:40:53.875Z,96802.56
2023-05-18T22:43:21.844Z,96800.75
2023-05-18T22:45:49.633Z,96791.28
2023-05-18T22:48:18.512Z,96794.59
2023-05-18T22:50:46.344Z,96787.41
2023-05-18T22:53:13.837Z,96786.41
2023-05-18T22:55:41.453Z,96786.25
2023-05-18T22:58:09.054Z,96786.38
2023-05-18T23:00:36.624Z,96791.06
2023-05-18T23:03:04.394Z,96773.38
2023-05-18T23:05:33.478Z,96780.75
2023-05-18T23:08:02.680Z,96785.91
2023-05-18T23:10:30.631Z,96777.75
2023-05-18T23:12:58.350Z,96779.81
2023-05-18T23:15:25.919Z,96773.03
2023-05-18T23:17:54.985Z,96767.09
2023-05-18T23:20:23.703Z,96777.75
2023-05-18T23:22:52.656Z,96773.59
2023-05-18T23:25:21.047Z,96774.66
2023-05-18T23:27:48.562Z,96775.63
2023-05-18T23:30:16.130Z,96779.50
2023-05-18T23:32:45.425Z,96781.31
2023-05-18T23:35:14.294Z,96780.66
2023-05-18T23:37:43.031Z,96773.75
2023-05-18T23:40:13.621Z,96777.88
2023-05-18T23:42:41.659Z,96775.38
2023-05-18T23:45:10.843Z,96770.28
2023-05-18T23:47:38.903Z,96777.53
2023-05-18T23:50:08.144Z,96773.81
2023-05-18T23:52:37.120Z,96775.00
2023-05-18T23:55:05.981Z,96768.66
2023-05-18T23:57:35.572Z,96768.56
